Time;durP1;ratioP1;P1;durP2;ratioP2;P2;SDS_P1;SDS_P2;PMS_P1;PMS_P2;Temp;Humidity;BMP_temperature;BMP_pressure;BME280_temperature;BME280_humidity;BME280_pressure;Samples;Min_cycle;Max_cycle;Signal;HPM_P1;HPM_P2
2022/04/01 00:00:16;;;;;;;0.60;0.60;;;;;;;3.63;90.13;94900.72;29371;196;64013;-54
2022/04/01 00:00:47;;;;;;;0.60;0.60;;;;;;;3.62;90.31;94899.94;29373;231;63004;-53
2022/04/01 00:01:18;;;;;;;0.60;0.60;;;;;;;3.61;90.68;94905.59;29373;218;63009;-59
2022/04/01 00:01:49;;;;;;;1.67;1.60;;;;;;;3.68;90.40;94903.31;29373;224;63004;-57
2022/04/01 00:02:21;;;;;;;0.55;0.55;;;;;;;3.69;89.89;94904.91;29373;228;63008;-57
2022/04/01 00:02:52;;;;;;;0.60;0.60;;;;;;;3.69;89.98;94904.91;29373;362;63005;-57
2022/04/01 00:03:24;;;;;;;0.60;0.60;;;;;;;3.69;90.11;94899.53;29373;343;63009;-53
2022/04/01 00:03:55;;;;;;;0.60;0.60;;;;;;;3.68;89.97;94903.31;29373;202;63005;-52
2022/04/01 00:04:26;;;;;;;0.60;0.60;;;;;;;3.73;90.16;94910.47;29373;268;63009;-53
2022/04/01 00:04:58;;;;;;;0.60;0.60;;;;;;;3.76;89.61;94905.31;29373;306;63005;-58
2022/04/01 00:05:30;;;;;;;0.60;0.60;;;;;;;3.76;89.29;94899.16;29371;209;64013;-53
2022/04/01 00:06:01;;;;;;;0.60;0.60;;;;;;;3.70;89.25;94899.25;29373;287;63005;-53
2022/04/01 00:06:33;;;;;;;0.60;0.60;;;;;;;3.71;89.54;94902.72;29373;341;63009;-58
2022/04/01 00:07:04;;;;;;;0.60;0.60;;;;;;;3.68;89.46;94903.31;29371;305;64009;-58
2022/04/01 00:07:38;;;;;;;0.60;0.60;;;;;;;3.63;89.49;94901.53;29373;299;63009;-57
2022/04/01 00:08:09;;;;;;;0.98;0.98;;;;;;;3.63;89.83;94900.72;29373;308;63004;-53
2022/04/01 00:08:40;;;;;;;0.60;0.60;;;;;;;3.67;89.88;94901.72;29373;198;63009;-53
2022/04/01 00:09:11;;;;;;;0.60;0.60;;;;;;;3.69;89.73;94900.34;29371;287;64008;-53
2022/04/01 00:09:43;;;;;;;0.55;0.55;;;;;;;3.67;89.68;94899.84;29373;250;63004;-52
2022/04/01 00:10:15;;;;;;;0.60;0.60;;;;;;;3.64;89.58;94896.94;29373;340;63005;-58
2022/04/01 00:10:46;;;;;;;0.60;0.60;;;;;;;3.60;89.78;94901.31;29373;309;63009;-54
2022/04/01 00:11:17;;;;;;;0.70;0.70;;;;;;;3.69;89.85;94891.50;29373;203;63005;-53
2022/04/01 00:11:49;;;;;;;0.68;0.68;;;;;;;3.74;89.48;94896.75;29371;299;64013;-54
2022/04/01 00:12:20;;;;;;;0.85;0.85;;;;;;;3.78;89.26;94896.97;29373;324;63005;-53
2022/04/01 00:12:51;;;;;;;0.60;0.60;;;;;;;3.76;89.01;94899.94;29373;307;63009;-53
2022/04/01 00:13:23;;;;;;;2.72;1.00;;;;;;;3.76;88.79;94904.50;29373;284;63010;-53
2022/04/01 00:13:54;;;;;;;0.70;0.70;;;;;;;3.80;89.06;94903.63;29373;303;63009;-58
2022/04/01 00:14:25;;;;;;;0.60;0.60;;;;;;;3.75;88.51;94903.72;29371;266;64009;-58
2022/04/01 00:14:57;;;;;;;0.60;0.60;;;;;;;3.79;88.69;94903.91;29373;275;63009;-58
2022/04/01 00:15:31;;;;;;;0.60;0.60;;;;;;;3.83;88.31;94905.69;29373;202;63004;-61
2022/04/01 00:16:03;;;;;;;0.70;0.70;;;;;;;3.86;87.74;94899.72;29371;224;64013;-53
2022/04/01 00:16:34;;;;;;;0.60;0.60;;;;;;;3.86;87.59;94899.72;29373;202;63004;-52
2022/04/01 00:17:06;;;;;;;0.60;0.60;;;;;;;3.82;87.81;94908.66;29373;240;63008;-58
2022/04/01 00:17:41;;;;;;;0.60;0.60;;;;;;;3.75;88.15;94895.66;29373;206;63005;-54
2022/04/01 00:18:12;;;;;;;0.60;0.60;;;;;;;3.69;88.66;94904.91;29373;201;63009;-53
2022/04/01 00:18:43;;;;;;;0.60;0.60;;;;;;;3.69;89.17;94899.53;29373;346;63005;-54
2022/04/01 00:19:14;;;;;;;0.60;0.60;;;;;;;3.73;89.18;94905.91;29373;215;63009;-58
2022/04/01 00:19:45;;;;;;;0.60;0.60;;;;;;;3.69;88.94;94894.19;29373;263;63005;-58
2022/04/01 00:20:18;;;;;;;1.48;1.45;;;;;;;3.73;88.78;94900.53;29373;226;63009;-53
2022/04/01 00:20:50;;;;;;;0.60;0.60;;;;;;;3.75;88.76;94900.25;29373;213;63005;-55
2022/04/01 00:21:21;;;;;;;0.60;0.60;;;;;;;3.75;88.58;94897.56;29371;227;64013;-56
2022/04/01 00:21:54;;;;;;;2.55;2.45;;;;;;;3.78;87.63;94897.75;29373;252;63004;-58
2022/04/01 00:22:28;;;;;;;0.60;0.60;;;;;;;3.79;87.67;94901.25;29373;248;63009;-59
2022/04/01 00:22:59;;;;;;;0.60;0.60;;;;;;;3.75;88.05;94900.25;29373;227;63004;-58
2022/04/01 00:23:31;;;;;;;0.60;0.60;;;;;;;3.79;88.07;94904.72;29373;224;63009;-54
2022/04/01 00:24:03;;;;;;;0.60;0.60;;;;;;;3.81;87.76;94901.72;29373;208;63004;-54
2022/04/01 00:24:35;;;;;;;0.50;0.50;;;;;;;3.82;87.69;94898.72;29373;203;63008;-57
2022/04/01 00:25:07;;;;;;;0.60;0.60;;;;;;;3.77;87.92;94900.75;29373;262;63005;-57
2022/04/01 00:25:39;;;;;;;0.60;0.60;;;;;;;3.70;88.42;94906.50;29373;213;63009;-54
2022/04/01 00:26:10;;;;;;;0.60;0.60;;;;;;;3.67;88.99;94912.44;29373;283;63005;-53
2022/04/01 00:26:43;;;;;;;0.50;0.50;;;;;;;3.62;89.37;94904.50;29371;279;64014;-53
2022/04/01 00:27:15;;;;;;;0.60;0.60;;;;;;;3.65;89.30;94898.53;29373;202;63009;-54
2022/04/01 00:27:50;;;;;;;0.60;0.60;;;;;;;3.67;88.90;94901.72;29373;211;63009;-53
2022/04/01 00:28:22;;;;;;;0.60;0.60;;;;;;;3.62;89.19;94899.12;29373;276;63005;-53
2022/04/01 00:28:53;;;;;;;0.57;0.57;;;;;;;3.61;89.45;94898.34;29373;218;63009;-53
2022/04/01 00:29:24;;;;;;;0.60;0.60;;;;;;;3.65;89.34;94904.69;29373;225;63004;-53
2022/04/01 00:29:56;;;;;;;0.70;0.70;;;;;;;3.69;89.08;94905.69;29373;218;63009;-52
2022/04/01 00:30:30;;;;;;;0.60;0.60;;;;;;;3.69;89.04;94900.34;29373;221;63004;-53
2022/04/01 00:31:01;;;;;;;0.60;0.60;;;;;;;3.70;88.93;94901.13;29373;213;63009;-58
2022/04/01 00:31:33;;;;;;;0.93;0.93;;;;;;;3.75;88.85;94897.56;29373;197;63004;-53
2022/04/01 00:32:05;;;;;;;0.80;0.80;;;;;;;3.76;88.65;94894.56;29371;204;64013;-53
2022/04/01 00:32:37;;;;;;;1.10;0.95;;;;;;;3.75;88.42;94898.34;29373;198;63011;-54
2022/04/01 00:33:08;;;;;;;1.08;1.08;;;;;;;3.76;88.55;94893.78;29373;208;63017;-53
2022/04/01 00:33:40;;;;;;;0.60;0.60;;;;;;;3.76;88.10;94902.63;29373;221;63005;-54
2022/04/01 00:34:16;;;;;;;0.60;0.60;;;;;;;3.74;88.23;94902.13;29373;220;63009;-54
2022/04/01 00:34:48;;;;;;;0.60;0.60;;;;;;;3.75;88.31;94893.00;29373;221;63005;-53
2022/04/01 00:35:19;;;;;;;0.60;0.60;;;;;;;3.76;88.65;94894.56;29373;310;63009;-59
2022/04/01 00:35:51;;;;;;;0.70;0.70;;;;;;;3.81;88.10;94897.13;29373;237;63005;-58
2022/04/01 00:36:22;;;;;;;0.70;0.70;;;;;;;3.79;88.19;94904.72;29372;216;63009;-58
2022/04/01 00:36:55;;;;;;;18.75;6.18;;;;;;;3.76;88.29;94899.94;29368;249;64004;-53
2022/04/01 00:37:26;;;;;;;0.80;0.80;;;;;;;3.79;88.41;94896.66;29371;262;64013;-57
2022/04/01 00:37:57;;;;;;;0.60;0.60;;;;;;;3.75;88.84;94897.56;29373;197;63004;-58
2022/04/01 00:38:28;;;;;;;0.60;0.60;;;;;;;3.71;89.22;94897.34;29373;199;63009;-58
2022/04/01 00:39:00;;;;;;;0.60;0.60;;;;;;;3.71;89.43;94894.66;29373;293;63004;-57
2022/04/01 00:39:31;;;;;;;0.60;0.60;;;;;;;3.76;89.13;94894.56;29373;250;63008;-54
2022/04/01 00:40:04;;;;;;;0.57;0.57;;;;;;;3.72;88.74;94890.91;29373;251;63004;-57
2022/04/01 00:40:37;;;;;;;0.57;0.57;;;;;;;3.68;89.32;94895.25;29373;220;63009;-53
2022/04/01 00:41:08;;;;;;;0.57;0.57;;;;;;;3.63;89.70;94896.16;29373;229;63005;-57
2022/04/01 00:41:44;;;;;;;0.70;0.70;;;;;;;3.57;90.06;94897.34;29373;273;63009;-59
2022/04/01 00:42:15;;;;;;;0.60;0.60;;;;;;;3.54;90.09;94897.13;29373;253;63005;-58
2022/04/01 00:42:46;;;;;;;0.60;0.60;;;;;;;3.51;90.66;94898.53;29371;273;64013;-58
2022/04/01 00:43:30;;;;;;;0.60;0.60;;;;;;;3.62;90.29;94899.12;29373;237;63005;-53
2022/04/01 00:44:31;;;;;;;0.60;0.60;;;;;;;3.66;90.18;94894.78;29371;335;64013;-58
2022/04/01 00:45:04;;;;;;;0.80;0.80;;;;;;;3.70;89.76;94895.75;29395;255;63004;-58
2022/04/01 00:45:35;;;;;;;0.60;0.60;;;;;;;3.75;89.72;94898.34;29395;268;63009;-58
2022/04/01 00:46:08;;;;;;;0.80;0.80;;;;;;;3.81;89.15;94899.06;29373;218;63004;-55
2022/04/01 00:46:42;;;;;;;0.60;0.60;;;;;;;3.82;89.24;94893.38;29373;248;63016;-58
2022/04/01 00:47:14;;;;;;;0.60;0.60;;;;;;;3.76;89.00;94899.94;29373;196;63004;-53
2022/04/01 00:47:49;;;;;;;0.65;0.65;;;;;;;3.74;89.81;94890.59;29373;222;63009;-57
2022/04/01 00:48:23;;;;;;;1.35;1.35;;;;;;;3.75;89.64;94897.56;29373;240;63005;-58
2022/04/01 00:48:54;;;;;;;1.00;1.00;;;;;;;3.74;89.58;94899.44;29373;218;63006;-53
2022/04/01 00:49:28;;;;;;;0.60;0.60;;;;;;;3.73;89.36;94900.53;29371;220;64009;-57
2022/04/01 00:49:59;;;;;;;0.60;0.60;;;;;;;3.72;89.51;94898.94;29371;202;64013;-60
2022/04/01 00:50:31;;;;;;;0.93;0.93;;;;;;;3.77;89.44;94904.22;29373;233;63005;-59
2022/04/01 00:51:03;;;;;;;0.60;0.60;;;;;;;3.79;89.03;94899.34;29373;204;63009;-57
2022/04/01 00:51:34;;;;;;;0.70;0.70;;;;;;;3.77;89.14;94901.53;29373;198;63004;-58
2022/04/01 00:52:11;;;;;;;0.70;0.70;;;;;;;3.79;88.85;94899.34;29373;220;63009;-57
2022/04/01 00:52:44;;;;;;;0.60;0.60;;;;;;;3.76;88.58;94899.16;29373;244;63004;-54
2022/04/01 00:53:20;;;;;;;0.60;0.60;;;;;;;3.74;88.94;94904.81;29373;199;63018;-58
2022/04/01 00:53:51;;;;;;;1.77;1.77;;;;;;;3.76;89.19;94899.16;29373;222;63004;-54
2022/04/01 00:54:23;;;;;;;0.68;0.68;;;;;;;3.72;89.25;94898.94;29373;264;63008;-53
2022/04/01 00:54:55;;;;;;;0.50;0.50;;;;;;;3.65;89.16;94899.34;29373;223;63005;-57
2022/04/01 00:55:28;;;;;;;0.60;0.60;;;;;;;3.62;89.81;94894.56;29371;216;64014;-57
2022/04/01 00:56:00;;;;;;;0.60;0.60;;;;;;;3.61;90.39;94900.22;29373;251;63005;-58
2022/04/01 00:56:33;;;;;;;0.60;0.60;;;;;;;3.61;90.42;94901.03;29373;224;63009;-58
2022/04/01 00:57:06;;;;;;;0.70;0.70;;;;;;;3.59;90.47;94899.72;29373;224;63005;-53
2022/04/01 00:57:38;;;;;;;0.60;0.60;;;;;;;3.54;90.73;94903.28;29373;209;63015;-53
2022/04/01 00:58:10;;;;;;;0.60;0.60;;;;;;;3.51;90.80;94897.72;29373;258;63005;-58
2022/04/01 00:58:43;;;;;;;0.60;0.60;;;;;;;3.46;91.07;94900.53;29373;199;63009;-57
2022/04/01 00:59:15;;;;;;;0.60;0.60;;;;;;;3.42;91.11;94896.84;29373;244;63004;-57
2022/04/01 00:59:50;;;;;;;0.60;0.60;;;;;;;3.40;91.59;94896.34;29373;202;63009;-54
2022/04/01 01:00:25;;;;;;;0.70;0.70;;;;;;;3.42;92.05;94899.53;29373;210;63004;-57
2022/04/01 01:00:56;;;;;;;0.60;0.60;;;;;;;3.38;92.17;94893.94;29371;227;64013;-57
2022/04/01 01:01:27;;;;;;;0.60;0.60;;;;;;;3.37;92.27;94897.72;29373;256;63004;-53
2022/04/01 01:02:00;;;;;;;0.60;0.60;;;;;;;3.35;92.33;94894.53;29373;198;63008;-59
2022/04/01 01:02:34;;;;;;;0.60;0.60;;;;;;;3.36;92.81;94891.56;29373;230;63005;-55
2022/04/01 01:03:09;;;;;;;0.60;0.60;;;;;;;3.43;92.87;94893.06;29373;200;63005;-57
2022/04/01 01:03:40;;;;;;;0.60;0.60;;;;;;;3.41;92.62;94897.94;29373;218;63018;-56
2022/04/01 01:04:13;;;;;;;0.60;0.60;;;;;;;3.38;92.69;94899.31;29373;247;63009;-57
2022/04/01 01:04:48;;;;;;;0.60;0.60;;;;;;;3.38;92.49;94899.31;29373;259;63005;-51
2022/04/01 01:05:20;;;;;;;0.60;0.60;;;;;;;3.44;93.00;94892.78;29373;258;63009;-57
2022/04/01 01:05:52;;;;;;;1.67;1.58;;;;;;;3.50;92.52;94899.59;29373;214;63005;-53
2022/04/01 01:06:23;;;;;;;0.60;0.60;;;;;;;3.50;92.07;94901.50;29371;263;64013;-53
2022/04/01 01:06:58;;;;;;;0.60;0.60;;;;;;;3.52;92.16;94910.03;29373;265;63004;-57
2022/04/01 01:07:29;;;;;;;0.60;0.60;;;;;;;3.59;91.91;94897.03;29373;262;63009;-66
2022/04/01 01:08:05;;;;;;;0.73;0.73;;;;;;;3.64;90.91;94897.75;29373;214;63004;-56
2022/04/01 01:08:36;;;;;;;0.60;0.60;;;;;;;3.63;90.55;94898.03;29373;204;63009;-57
2022/04/01 01:09:11;;;;;;;0.60;0.60;;;;;;;3.56;90.30;94895.75;29373;226;63004;-57
2022/04/01 01:09:43;;;;;;;0.60;0.60;;;;;;;3.51;90.72;94895.03;29373;207;63025;-54
2022/04/01 01:10:16;;;;;;;0.60;0.60;;;;;;;3.51;91.00;94892.34;29373;205;63005;-57
2022/04/01 01:10:48;;;;;;;0.60;0.60;;;;;;;3.47;91.65;94896.72;29373;227;63009;-57
2022/04/01 01:11:21;;;;;;;0.60;0.60;;;;;;;3.45;91.90;94894.37;29373;204;63005;-57
2022/04/01 01:11:54;;;;;;;0.50;0.50;;;;;;;3.44;92.22;94898.12;29371;211;64013;-57
2022/04/01 01:12:26;;;;;;;0.55;0.55;;;;;;;3.48;92.06;94898.31;29371;211;64009;-57
2022/04/01 01:12:57;;;;;;;0.60;0.60;;;;;;;3.46;91.92;94895.16;29371;220;64013;-57
2022/04/01 01:13:32;;;;;;;0.60;0.60;;;;;;;3.40;91.88;94893.66;29373;200;63008;-58
2022/04/01 01:14:08;;;;;;;0.70;0.70;;;;;;;3.45;91.78;94896.25;29371;244;64013;-53
2022/04/01 01:14:41;;;;;;;0.60;0.60;;;;;;;3.51;91.70;94897.72;29373;232;63004;-57
2022/04/01 01:15:16;;;;;;;1.05;1.05;;;;;;;3.55;91.85;94896.03;29373;267;63009;-58
2022/04/01 01:15:47;;;;;;;0.60;0.60;;;;;;;3.60;91.36;94895.94;29373;243;63004;-52
2022/04/01 01:16:19;;;;;;;0.70;0.70;;;;;;;3.65;90.85;94898.53;29373;255;63008;-57
2022/04/01 01:16:51;;;;;;;0.60;0.60;;;;;;;3.64;90.36;94896.94;29371;220;64008;-62
2022/04/01 01:17:22;;;;;;;0.60;0.60;;;;;;;3.71;90.05;94897.34;29373;293;63025;-55
2022/04/01 01:17:53;;;;;;;0.60;0.60;;;;;;;3.66;89.82;94900.13;29373;209;63005;-53
2022/04/01 01:18:24;;;;;;;0.60;0.60;;;;;;;3.57;89.93;94897.34;29373;205;63009;-57
2022/04/01 01:19:00;;;;;;;0.60;0.60;;;;;;;3.52;90.26;94888.59;29373;224;63005;-57
2022/04/01 01:19:31;;;;;;;0.60;0.60;;;;;;;3.53;90.75;94903.59;29373;205;63009;-57
2022/04/01 01:20:12;;;;;;;0.60;0.60;;;;;;;3.49;91.13;94895.34;29373;204;63010;-52
2022/04/01 01:20:43;;;;;;;0.70;0.70;;;;;;;3.49;91.25;94897.22;29395;266;63009;-57
2022/04/01 01:21:15;;;;;;;0.60;0.60;;;;;;;3.47;91.34;94902.09;29395;232;63005;-59
2022/04/01 01:21:50;;;;;;;0.60;0.60;;;;;;;3.43;91.38;94893.87;29371;228;64004;-57
2022/04/01 01:22:21;;;;;;;0.65;0.65;;;;;;;3.37;91.43;94897.72;29373;206;63004;-57
2022/04/01 01:22:53;;;;;;;0.60;0.60;;;;;;;3.37;91.81;94903.88;29373;248;63009;-53
2022/04/01 01:23:29;;;;;;;0.60;0.60;;;;;;;3.34;91.63;94899.09;29373;266;63004;-58
2022/04/01 01:24:17;;;;;;;0.60;0.60;;;;;;;3.27;91.96;94898.69;29373;220;63008;-57
2022/04/01 01:24:49;;;;;;;0.52;0.52;;;;;;;3.27;92.24;94893.31;29373;246;63005;-54
2022/04/01 01:25:21;;;;;;;0.55;0.55;;;;;;;3.34;92.03;94898.31;29373;229;63009;-59
2022/04/01 01:25:52;;;;;;;0.60;0.60;;;;;;;3.35;91.62;94900.69;29373;220;63005;-58
2022/04/01 01:26:23;;;;;;;0.60;0.60;;;;;;;3.45;90.98;94898.94;29371;220;64013;-57
2022/04/01 01:26:55;;;;;;;0.70;0.70;;;;;;;3.45;90.30;94894.37;29373;216;63008;-59
2022/04/01 01:27:26;;;;;;;0.60;0.60;;;;;;;3.49;90.19;94899.91;29373;227;63009;-63
2022/04/01 01:27:57;;;;;;;1.27;1.27;;;;;;;3.53;89.79;94896.34;29373;284;63005;-54
2022/04/01 01:28:29;;;;;;;0.60;0.60;;;;;;;3.54;90.01;94897.13;29373;235;63009;-57
2022/04/01 01:29:02;;;;;;;0.77;0.77;;;;;;;3.49;89.84;94899.91;29373;218;63004;-57
2022/04/01 01:29:39;;;;;;;0.70;0.70;;;;;;;3.46;90.44;94901.31;29372;198;63009;-57
2022/04/01 01:30:11;;;;;;;0.70;0.70;;;;;;;3.47;90.54;94899.41;29371;210;64009;-53
2022/04/01 01:30:42;;;;;;;0.60;0.60;;;;;;;3.43;90.63;94896.53;29373;268;63009;-57
2022/04/01 01:31:15;;;;;;;0.60;0.60;;;;;;;3.36;90.59;94894.25;29373;215;63004;-57
2022/04/01 01:31:46;;;;;;;0.60;0.60;;;;;;;3.34;91.18;94898.31;29373;196;63008;-53
2022/04/01 01:32:19;;;;;;;0.60;0.60;;;;;;;3.36;91.50;94896.94;29373;278;63005;-57
2022/04/01 01:32:50;;;;;;;0.55;0.55;;;;;;;3.39;91.05;94905.47;29373;243;63009;-53
2022/04/01 01:33:24;;;;;;;0.80;0.80;;;;;;;3.45;90.66;94902.41;29373;293;63005;-56
2022/04/01 01:33:58;;;;;;;0.60;0.60;;;;;;;3.57;89.46;94900.03;29373;222;63009;-58
2022/04/01 01:34:32;;;;;;;0.62;0.62;;;;;;;3.64;89.04;94896.94;29373;209;63005;-57
2022/04/01 01:35:05;;;;;;;0.82;0.82;;;;;;;3.63;88.72;94895.34;29373;202;63009;-53
2022/04/01 01:35:37;;;;;;;0.60;0.60;;;;;;;3.61;88.93;94898.34;29371;210;64009;-57
2022/04/01 01:36:10;;;;;;;0.70;0.70;;;;;;;3.57;89.09;94891.19;29373;203;63009;-57
2022/04/01 01:36:44;;;;;;;0.60;0.60;;;;;;;3.54;89.31;94892.56;29373;204;63004;-56
2022/04/01 01:37:15;;;;;;;0.60;0.60;;;;;;;3.49;89.49;94899.91;29373;234;63009;-56
2022/04/01 01:37:49;;;;;;;0.60;0.60;;;;;;;3.45;90.00;94893.56;29373;199;63004;-57
2022/04/01 01:38:20;;;;;;;0.60;0.60;;;;;;;3.39;90.20;94890.19;29373;258;63009;-56
2022/04/01 01:38:52;;;;;;;0.60;0.60;;;;;;;3.36;90.49;94891.56;29373;208;63004;-59
2022/04/01 01:39:24;;;;;;;0.60;0.60;;;;;;;3.36;90.93;94891.56;29373;209;63008;-54
2022/04/01 01:39:56;;;;;;;0.60;0.60;;;;;;;3.38;91.15;94893.94;29373;203;63005;-57
2022/04/01 01:40:27;;;;;;;0.60;0.60;;;;;;;3.35;91.12;94889.19;29373;200;63009;-54
2022/04/01 01:40:58;;;;;;;0.60;0.60;;;;;;;3.33;91.39;94897.50;29371;219;64009;-53
2022/04/01 01:41:29;;;;;;;0.82;0.82;;;;;;;3.30;91.25;94884.69;29373;202;63009;-59
2022/04/01 01:42:01;;;;;;;0.57;0.57;;;;;;;3.27;91.47;94896.00;29373;202;63005;-60
2022/04/01 01:42:33;;;;;;;0.60;0.60;;;;;;;3.23;91.84;94897.69;29373;276;63009;-57
2022/04/01 01:43:05;;;;;;;0.60;0.60;;;;;;;3.20;91.83;94889.44;29371;258;64009;-56
2022/04/01 01:43:36;;;;;;;0.60;0.60;;;;;;;3.17;91.96;94893.50;29373;202;63009;-53
2022/04/01 01:44:12;;;;;;;0.60;0.60;;;;;;;3.17;92.39;94892.69;29373;248;63004;-57
2022/04/01 01:44:43;;;;;;;0.52;0.52;;;;;;;3.17;92.77;94898.06;29373;222;63009;-57
2022/04/01 01:45:16;;;;;;;0.60;0.60;;;;;;;3.18;92.85;94896.97;29373;212;63011;-53
2022/04/01 01:45:47;;;;;;;0.60;0.60;;;;;;;3.18;93.29;94889.72;29373;198;63009;-57
2022/04/01 01:46:21;;;;;;;0.60;0.60;;;;;;;3.25;93.16;94898.19;29373;196;63004;-57
2022/04/01 01:46:53;;;;;;;0.60;0.60;;;;;;;3.27;92.65;94895.22;29373;292;63008;-58
2022/04/01 01:47:25;;;;;;;0.60;0.60;;;;;;;3.25;92.35;94895.50;29371;304;64009;-57
2022/04/01 01:47:57;;;;;;;0.60;0.60;;;;;;;3.21;92.40;94893.72;29373;209;63016;-57
2022/04/01 01:48:28;;;;;;;0.60;0.60;;;;;;;3.16;92.29;94897.28;29373;204;63005;-57
2022/04/01 01:48:59;;;;;;;0.80;0.80;;;;;;;3.18;92.63;94894.28;29373;199;63009;-57
2022/04/01 01:49:30;;;;;;;0.60;0.60;;;;;;;3.17;92.68;94898.84;29373;285;63005;-57
2022/04/01 01:54:59;;;;;;;0.60;0.60;;;;;;;3.18;92.43;94889.72;29373;207;63009;-53
2022/04/01 01:55:30;;;;;;;0.70;0.70;;;;;;;3.15;92.28;94884.97;29373;203;63007;-53
2022/04/01 01:56:02;;;;;;;0.60;0.60;;;;;;;3.14;92.44;94887.94;29371;230;64013;-57
2022/04/01 01:56:33;;;;;;;0.65;0.65;;;;;;;3.10;92.50;94893.09;29373;224;63005;-58
2022/04/01 01:57:05;;;;;;;0.60;0.60;;;;;;;3.09;92.79;94894.19;29373;207;63009;-54
2022/04/01 01:57:37;;;;;;;0.60;0.60;;;;;;;3.14;93.09;94888.72;29373;261;63005;-57
2022/04/01 01:58:09;;;;;;;0.60;0.60;;;;;;;3.15;93.05;94890.31;29371;208;64013;-57
2022/04/01 01:58:40;;;;;;;0.60;0.60;;;;;;;3.18;92.89;94884.38;29373;198;63004;-58
2022/04/01 01:59:12;;;;;;;0.60;0.60;;;;;;;3.22;92.53;94889.94;29371;220;64013;-58
2022/04/01 01:59:45;;;;;;;0.60;0.60;;;;;;;3.28;92.02;94889.56;29373;199;63004;-58
2022/04/01 02:00:20;;;;;;;0.60;0.60;;;;;;;3.30;91.56;94883.91;29373;223;63009;-53
2022/04/01 02:00:52;;;;;;;0.60;0.60;;;;;;;3.31;91.26;94891.66;29373;237;63004;-54
2022/04/01 02:01:24;;;;;;;0.80;0.80;;;;;;;3.30;91.46;94887.37;29373;252;63008;-57
2022/04/01 02:01:57;;;;;;;0.60;0.60;;;;;;;3.33;91.25;94891.34;29373;212;63005;-57
2022/04/01 02:02:29;;;;;;;0.60;0.60;;;;;;;3.34;91.22;94891.06;29373;243;63009;-58
2022/04/01 02:03:00;;;;;;;0.60;0.60;;;;;;;3.31;90.73;94891.66;29373;228;63005;-58
2022/04/01 02:03:31;;;;;;;0.60;0.60;;;;;;;3.28;91.04;94892.25;29373;272;63009;-57
2022/04/01 02:04:03;;;;;;;0.60;0.60;;;;;;;3.24;91.26;94893.13;29373;239;63009;-54
2022/04/01 02:04:39;;;;;;;0.60;0.60;;;;;;;3.21;91.27;94891.81;29371;250;64013;-58
2022/04/01 02:05:10;;;;;;;0.60;0.60;;;;;;;3.20;91.46;94886.75;29373;224;63005;-54
2022/04/01 02:05:41;;;;;;;0.60;0.60;;;;;;;3.25;91.83;94895.50;29373;255;63009;-58
2022/04/01 02:06:13;;;;;;;0.60;0.60;;;;;;;3.28;91.39;94894.13;29373;202;63004;-57
2022/04/01 02:06:46;;;;;;;0.50;0.50;;;;;;;3.30;91.16;94890.06;29373;238;63009;-58
2022/04/01 02:07:18;;;;;;;0.60;0.60;;;;;;;3.31;90.74;94890.84;29373;267;63010;-57
2022/04/01 02:07:49;;;;;;;0.60;0.60;;;;;;;3.25;90.61;94882.09;29373;311;63009;-52
2022/04/01 02:08:21;;;;;;;0.60;0.60;;;;;;;3.20;90.67;94895.59;29373;235;63007;-58
2022/04/01 02:08:53;;;;;;;0.60;0.60;;;;;;;3.15;90.79;94884.97;29373;254;63008;-52
2022/04/01 02:09:25;;;;;;;0.60;0.60;;;;;;;3.11;91.14;94892.03;29371;220;64009;-53
2022/04/01 02:09:57;;;;;;;0.60;0.60;;;;;;;3.09;91.44;94886.16;29373;269;63009;-58
2022/04/01 02:10:28;;;;;;;0.60;0.60;;;;;;;3.09;91.61;94886.16;29373;224;63005;-53
2022/04/01 02:11:00;;;;;;;0.60;0.60;;;;;;;3.08;91.88;94887.25;29373;203;63009;-53
2022/04/01 02:11:31;;;;;;;0.60;0.60;;;;;;;3.08;92.05;94889.94;29373;280;63005;-57
2022/04/01 02:12:03;;;;;;;0.60;0.60;;;;;;;3.07;92.47;94877.63;29373;287;63009;-59
2022/04/01 02:12:35;;;;;;;0.60;0.60;;;;;;;3.09;92.82;94886.16;29373;213;63005;-54
2022/04/01 02:13:06;;;;;;;0.60;0.60;;;;;;;3.11;92.91;94888.53;29373;196;63009;-53
2022/04/01 02:13:38;;;;;;;0.50;0.50;;;;;;;3.10;92.49;94890.44;29373;212;63004;-52
2022/04/01 02:14:11;;;;;;;0.68;0.68;;;;;;;3.12;92.67;94884.78;29373;296;63009;-57
2022/04/01 02:14:42;;;;;;;0.60;0.60;;;;;;;3.22;92.11;94885.38;29371;225;64009;-58
2022/04/01 02:15:14;;;;;;;0.70;0.70;;;;;;;3.31;91.31;94894.34;29373;199;63009;-62
2022/04/01 02:15:45;;;;;;;0.60;0.60;;;;;;;3.37;89.92;94887.78;29373;288;63004;-58
2022/04/01 02:16:16;;;;;;;0.60;0.60;;;;;;;3.36;89.61;94888.88;29373;221;63008;-52
2022/04/01 02:16:48;;;;;;;0.60;0.60;;;;;;;3.38;89.39;94888.59;29373;221;63005;-57
2022/04/01 02:17:19;;;;;;;0.60;0.60;;;;;;;3.38;89.38;94891.28;29373;230;63009;-53
2022/04/01 02:17:50;;;;;;;0.60;0.60;;;;;;;3.32;89.28;94885.19;29373;219;63005;-59
2022/04/01 02:18:22;;;;;;;0.60;0.60;;;;;;;3.28;89.51;94889.56;29373;223;63009;-57
2022/04/01 02:18:53;;;;;;;0.60;0.60;;;;;;;3.22;89.56;94890.72;29373;202;63005;-59
2022/04/01 02:19:25;;;;;;;0.60;0.60;;;;;;;3.23;90.03;94881.59;29373;205;63009;-57
2022/04/01 02:19:56;;;;;;;0.70;0.70;;;;;;;3.23;89.86;94884.28;29371;278;64009;-58
2022/04/01 02:20:31;;;;;;;0.60;0.60;;;;;;;3.25;90.22;94887.47;29373;227;63009;-59
2022/04/01 02:21:10;;;;;;;0.60;0.60;;;;;;;3.24;89.93;94883.19;29373;219;63004;-59
2022/04/01 02:21:46;;;;;;;0.60;0.60;;;;;;;3.24;90.25;94891.25;29373;225;63009;-58
2022/04/01 02:22:17;;;;;;;0.60;0.60;;;;;;;3.23;90.21;94881.59;29373;218;63004;-55
2022/04/01 02:22:48;;;;;;;1.30;1.00;;;;;;;3.25;90.33;94890.16;29373;217;63009;-53
2022/04/01 02:23:19;;;;;;;0.60;0.60;;;;;;;3.24;90.24;94877.84;29373;230;63004;-59
2022/04/01 02:23:51;;;;;;;0.60;0.60;;;;;;;3.20;90.62;94887.56;29373;196;63008;-60
2022/04/01 02:24:24;;;;;;;0.60;0.60;;;;;;;3.23;90.51;94880.81;29373;233;63005;-57
2022/04/01 02:24:56;;;;;;;1.27;1.27;;;;;;;3.23;90.07;94881.59;29373;227;63009;-53
2022/04/01 02:25:27;;;;;;;0.70;0.70;;;;;;;3.30;89.59;94884.69;29371;197;64009;-56
2022/04/01 02:25:59;;;;;;;0.60;0.60;;;;;;;3.34;89.28;94888.38;29373;255;63009;-60
2022/04/01 02:26:30;;;;;;;0.60;0.60;;;;;;;3.31;89.12;94886.28;29373;212;63005;-59
2022/04/01 02:27:02;;;;;;;0.60;0.60;;;;;;;3.27;89.18;94882.59;29373;223;63009;-57
2022/04/01 02:27:34;;;;;;;0.70;0.70;;;;;;;3.28;89.66;94886.87;29373;225;63005;-52
2022/04/01 02:28:05;;;;;;;0.70;0.70;;;;;;;3.33;89.38;94884.13;29373;226;63016;-55
2022/04/01 02:28:38;;;;;;;0.70;0.70;;;;;;;3.32;88.94;94885.19;29373;258;63004;-55
2022/04/01 02:29:10;;;;;;;0.60;0.60;;;;;;;3.37;88.88;94882.44;29373;242;63009;-59
2022/04/01 02:29:41;;;;;;;0.60;0.60;;;;;;;3.37;88.66;94890.47;29373;214;63004;-53
2022/04/01 02:30:12;;;;;;;0.60;0.60;;;;;;;3.36;88.70;94880.06;29373;205;63009;-59
2022/04/01 02:30:45;;;;;;;0.60;0.60;;;;;;;3.30;89.05;94891.94;29371;213;64009;-54
2022/04/01 02:31:18;;;;;;;0.60;0.60;;;;;;;3.25;89.58;94884.78;29373;208;63008;-59
2022/04/01 02:31:50;;;;;;;0.60;0.60;;;;;;;3.23;89.90;94884.28;29371;231;64009;-59
2022/04/01 02:32:23;;;;;;;0.60;0.60;;;;;;;3.19;90.30;94888.63;29373;249;63009;-53
2022/04/01 02:32:54;;;;;;;0.60;0.60;;;;;;;3.18;90.36;94889.72;29373;225;63005;-60
2022/04/01 02:33:27;;;;;;;0.60;0.60;;;;;;;3.16;90.64;94883.06;29373;214;63009;-59
2022/04/01 02:33:59;;;;;;;0.50;0.50;;;;;;;3.12;90.84;94884.78;29373;265;63005;-52
2022/04/01 02:34:30;;;;;;;0.60;0.60;;;;;;;3.05;90.92;94889.72;29373;230;63009;-57
2022/04/01 02:35:04;;;;;;;0.50;0.50;;;;;;;2.98;91.13;94876.69;29371;227;64009;-59
2022/04/01 02:35:35;;;;;;;0.50;0.50;;;;;;;3.02;91.27;94885.75;29373;203;63009;-52
2022/04/01 02:36:10;;;;;;;0.60;0.60;;;;;;;3.00;91.44;94890.59;29373;205;63004;-59
2022/04/01 02:36:42;;;;;;;0.60;0.60;;;;;;;2.99;91.79;94891.69;29373;227;63009;-60
2022/04/01 02:37:20;;;;;;;0.60;0.60;;;;;;;2.98;92.24;94890.09;29373;258;63004;-58
2022/04/01 02:37:52;;;;;;;0.60;0.60;;;;;;;2.99;92.50;94889.00;29373;243;63009;-53
2022/04/01 02:38:25;;;;;;;0.60;0.60;;;;;;;2.98;92.42;94885.53;29373;215;63004;-59
2022/04/01 02:38:59;;;;;;;0.60;0.60;;;;;;;3.00;92.81;94883.34;29373;231;63008;-59
2022/04/01 02:39:31;;;;;;;0.60;0.60;;;;;;;3.08;92.56;94884.56;29371;281;64009;-52
2022/04/01 02:40:06;;;;;;;0.60;0.60;;;;;;;3.10;92.20;94882.38;29373;210;63009;-59
2022/04/01 02:40:37;;;;;;;0.60;0.60;;;;;;;3.16;92.09;94885.75;29373;216;63005;-59
2022/04/01 02:41:12;;;;;;;0.60;0.60;;;;;;;3.22;91.50;94884.59;29371;197;64013;-58
2022/04/01 02:41:47;;;;;;;0.60;0.60;;;;;;;3.23;90.77;94881.59;29373;255;63005;-53